createdAt,value
2022-09-07T00:00:42.641Z,25.90
2022-09-07T00:03:09.655Z,26.00
2022-09-07T00:05:43.993Z,26.00
2022-09-07T00:08:11.667Z,26.00
2022-09-07T00:10:38.894Z,25.90
2022-09-07T00:13:07.046Z,25.90
2022-09-07T00:15:34.203Z,25.90
2022-09-07T00:18:00.915Z,25.80
2022-09-07T00:20:27.631Z,25.80
2022-09-07T00:22:54.387Z,25.80
2022-09-07T00:25:21.117Z,25.70
2022-09-07T00:27:47.871Z,25.70
2022-09-07T00:30:14.610Z,25.60
2022-09-07T00:32:41.371Z,25.60
2022-09-07T00:35:08.473Z,25.60
2022-09-07T00:37:35.233Z,25.60
2022-09-07T00:40:02.393Z,25.60
2022-09-07T00:42:29.197Z,25.50
2022-09-07T00:45:12.134Z,25.50
2022-09-07T00:47:45.538Z,25.50
2022-09-07T00:50:19.294Z,25.40
2022-09-07T00:52:50.759Z,25.40
2022-09-07T00:55:19.109Z,25.40
2022-09-07T00:57:50.125Z,25.50
2022-09-07T01:00:17.408Z,25.50
2022-09-07T01:02:45.511Z,25.40
2022-09-07T01:05:46.271Z,25.40
2022-09-07T01:08:14.075Z,25.40
2022-09-07T01:10:40.824Z,25.40
2022-09-07T01:13:08.464Z,25.40
2022-09-07T01:16:02.520Z,25.40
2022-09-07T01:18:42.794Z,25.40
2022-09-07T01:21:22.109Z,25.40
2022-09-07T01:24:17.603Z,25.40
2022-09-07T01:27:18.018Z,25.40
2022-09-07T01:30:08.122Z,25.50
2022-09-07T01:32:49.879Z,25.50
2022-09-07T01:35:43.865Z,25.50
2022-09-07T01:38:31.992Z,25.50
2022-09-07T01:41:07.777Z,25.50
2022-09-07T01:43:41.558Z,25.60
2022-09-07T01:46:34.412Z,25.60
2022-09-07T01:49:08.454Z,25.60
2022-09-07T01:51:41.021Z,25.60
2022-09-07T01:54:42.048Z,25.70
2022-09-07T01:57:18.746Z,25.70
2022-09-07T01:59:52.433Z,25.70
2022-09-07T02:02:30.175Z,25.70
2022-09-07T02:05:14.570Z,25.80
2022-09-07T02:08:24.354Z,25.70
2022-09-07T02:11:20.171Z,25.80
2022-09-07T02:13:52.270Z,25.70
2022-09-07T02:16:25.755Z,25.70
2022-09-07T02:18:56.747Z,25.70
2022-09-07T02:21:41.620Z,25.70
2022-09-07T02:24:31.124Z,25.70
2022-09-07T02:26:59.591Z,25.70
2022-09-07T02:29:30.787Z,25.70
2022-09-07T02:31:57.853Z,25.70
2022-09-07T02:34:24.795Z,25.70
2022-09-07T02:36:53.736Z,25.70
2022-09-07T02:39:20.635Z,25.70
2022-09-07T02:41:47.501Z,25.70
2022-09-07T02:44:21.120Z,25.70
2022-09-07T02:47:13.106Z,25.80
2022-09-07T02:49:49.347Z,25.80
2022-09-07T02:52:44.333Z,25.80
2022-09-07T02:55:34.450Z,25.80
2022-09-07T02:58:10.127Z,25.70
2022-09-07T03:01:02.235Z,25.70
2022-09-07T03:03:49.278Z,25.70
2022-09-07T03:06:26.509Z,25.70
2022-09-07T03:08:56.225Z,25.70
2022-09-07T03:11:23.606Z,25.70
2022-09-07T03:13:50.354Z,25.70
2022-09-07T03:16:17.472Z,25.70
2022-09-07T03:18:44.555Z,25.70
2022-09-07T03:21:11.644Z,25.70
2022-09-07T03:23:38.867Z,25.70
2022-09-07T03:26:05.935Z,25.70
2022-09-07T03:28:32.691Z,25.70
2022-09-07T03:31:02.096Z,25.80
2022-09-07T03:33:28.979Z,25.70
2022-09-07T03:36:02.391Z,25.70
2022-09-07T03:38:30.808Z,25.70
2022-09-07T03:41:02.674Z,25.80
2022-09-07T03:43:31.021Z,25.80
2022-09-07T03:46:03.397Z,25.80
2022-09-07T03:48:32.037Z,25.80
2022-09-07T03:51:01.708Z,25.80
2022-09-07T03:53:34.053Z,25.70
2022-09-07T03:56:03.974Z,25.70
2022-09-07T03:58:32.687Z,25.70
2022-09-07T04:01:04.648Z,25.70
2022-09-07T04:03:31.487Z,25.80
2022-09-07T04:06:02.000Z,25.80
2022-09-07T04:08:34.400Z,25.80
2022-09-07T04:11:03.117Z,25.80
2022-09-07T04:13:30.742Z,25.80
2022-09-07T04:15:57.814Z,25.90
2022-09-07T04:18:25.364Z,25.80
2022-09-07T04:20:52.411Z,25.90
2022-09-07T04:23:19.757Z,25.90
2022-09-07T04:25:51.041Z,25.90
2022-09-07T04:28:20.499Z,25.90
2022-09-07T04:30:47.448Z,25.90
2022-09-07T04:33:15.433Z,25.90
2022-09-07T04:35:43.587Z,25.90
2022-09-07T04:38:14.237Z,25.90
2022-09-07T04:40:41.356Z,25.90
2022-09-07T04:43:09.559Z,25.90
2022-09-07T04:45:37.407Z,25.90
2022-09-07T04:48:05.136Z,25.90
2022-09-07T04:50:32.666Z,25.90
2022-09-07T04:52:59.439Z,25.90
2022-09-07T04:55:26.273Z,25.90
2022-09-07T04:57:53.013Z,25.80
2022-09-07T05:00:19.776Z,25.90
2022-09-07T05:02:46.755Z,25.80
2022-09-07T05:05:13.752Z,25.80
2022-09-07T05:07:40.590Z,25.80
2022-09-07T05:10:07.663Z,25.80
2022-09-07T05:12:34.439Z,25.70
2022-09-07T05:15:01.650Z,25.70
2022-09-07T05:17:31.005Z,25.60
2022-09-07T05:19:58.157Z,25.60
2022-09-07T05:22:27.583Z,25.60
2022-09-07T05:24:54.363Z,25.50
2022-09-07T05:27:21.111Z,25.50
2022-09-07T05:30:04.477Z,25.50
2022-09-07T05:32:32.084Z,25.50
2022-09-07T05:34:58.901Z,25.40
2022-09-07T05:37:25.606Z,25.40
2022-09-07T05:39:55.035Z,25.40
2022-09-07T05:42:22.724Z,25.40
2022-09-07T05:44:49.446Z,25.50
2022-09-07T05:47:16.323Z,25.50
2022-09-07T05:49:43.141Z,25.50
2022-09-07T05:52:10.592Z,25.50
2022-09-07T05:54:37.409Z,25.50
2022-09-07T05:57:04.408Z,25.50
2022-09-07T05:59:31.244Z,25.50
2022-09-07T06:01:58.049Z,25.50
2022-09-07T06:04:24.918Z,25.50
2022-09-07T06:07:20.132Z,25.50
2022-09-07T06:12:25.800Z,25.40
2022-09-07T06:14:52.536Z,25.40
2022-09-07T06:17:19.692Z,25.40
2022-09-07T06:19:46.411Z,25.40
2022-09-07T06:22:13.336Z,25.30
2022-09-07T06:24:40.057Z,25.30
2022-09-07T06:27:06.812Z,25.20
2022-09-07T06:29:33.546Z,25.30
2022-09-07T06:34:47.043Z,25.20
2022-09-07T06:37:14.042Z,25.20
2022-09-07T06:39:40.844Z,25.20
2022-09-07T06:42:07.615Z,25.30
2022-09-07T06:44:34.681Z,25.30
2022-09-07T06:49:33.230Z,25.40
2022-09-07T06:51:59.998Z,25.40
2022-09-07T06:57:13.619Z,25.50
2022-09-07T06:59:40.415Z,25.40
2022-09-07T07:02:09.505Z,25.40
2022-09-07T07:04:40.628Z,25.40
2022-09-07T07:07:14.343Z,25.40
2022-09-07T07:09:42.016Z,25.40
2022-09-07T07:12:10.068Z,25.40
2022-09-07T07:14:39.719Z,25.40
2022-09-07T07:17:10.242Z,25.40
2022-09-07T07:19:37.003Z,25.40
2022-09-07T07:22:42.958Z,25.40
2022-09-07T07:24:50.449Z,25.40
2022-09-07T07:27:17.575Z,25.30
2022-09-07T07:29:44.454Z,25.30
2022-09-07T07:32:11.178Z,25.40
2022-09-07T07:34:38.067Z,25.50
2022-09-07T07:37:04.850Z,25.60
2022-09-07T07:42:18.479Z,25.70
2022-09-07T07:44:45.276Z,25.60
2022-09-07T07:47:12.067Z,25.70
2022-09-07T07:49:38.733Z,25.70
2022-09-07T07:54:53.089Z,25.80
2022-09-07T07:57:19.853Z,25.80
2022-09-07T07:59:46.560Z,25.90
2022-09-07T08:02:17.270Z,25.90
2022-09-07T08:04:44.264Z,25.80
2022-09-07T08:07:12.466Z,25.90
2022-09-07T08:09:40.741Z,25.90
2022-09-07T08:12:08.475Z,25.90
2022-09-07T08:14:40.612Z,25.90
2022-09-07T08:17:08.712Z,26.00
2022-09-07T08:19:36.027Z,25.90
2022-09-07T08:22:03.863Z,26.00
2022-09-07T08:24:31.976Z,26.00
2022-09-07T08:26:58.888Z,26.10
2022-09-07T08:29:25.568Z,26.20
2022-09-07T08:31:52.378Z,26.20
2022-09-07T08:34:19.272Z,26.10
2022-09-07T08:36:46.015Z,26.10
2022-09-07T08:39:13.081Z,26.20
2022-09-07T08:41:55.123Z,26.20
2022-09-07T08:44:27.636Z,26.40
2022-09-07T08:46:54.440Z,26.40
2022-09-07T08:49:46.515Z,26.50
2022-09-07T08:52:21.487Z,26.60
2022-09-07T08:55:00.515Z,26.60
2022-09-07T08:57:31.200Z,26.60
2022-09-07T09:00:13.884Z,26.70
2022-09-07T09:02:44.277Z,26.80
2022-09-07T09:05:35.958Z,26.80
2022-09-07T09:08:18.293Z,26.90
2022-09-07T09:11:29.493Z,27.00
2022-09-07T09:14:10.498Z,27.00
2022-09-07T09:16:43.652Z,27.10
2022-09-07T09:19:41.383Z,27.10
2022-09-07T09:22:15.696Z,27.10
2022-09-07T09:24:55.605Z,27.10
2022-09-07T09:27:22.571Z,27.20
2022-09-07T09:29:49.374Z,27.10
2022-09-07T09:32:39.847Z,27.20
2022-09-07T09:35:28.791Z,27.30
2022-09-07T09:37:57.739Z,27.40
2022-09-07T09:40:36.930Z,27.40
2022-09-07T09:43:18.328Z,27.50
2022-09-07T09:48:40.391Z,27.70
2022-09-07T09:54:00.006Z,27.90
2022-09-07T09:56:43.758Z,28.00
2022-09-07T10:05:36.260Z,28.00
2022-09-07T10:08:15.208Z,27.90
2022-09-07T10:11:15.572Z,27.80
2022-09-07T10:13:55.741Z,27.80
2022-09-07T10:16:39.228Z,27.60
2022-09-07T10:19:06.086Z,27.60
2022-09-07T10:21:33.228Z,27.60
2022-09-07T10:24:00.939Z,27.60
2022-09-07T10:26:33.362Z,27.70
2022-09-07T10:29:14.009Z,27.70
2022-09-07T10:32:19.773Z,27.80
2022-09-07T10:35:22.451Z,27.80
2022-09-07T10:38:04.127Z,27.90
2022-09-07T10:40:58.598Z,27.90
2022-09-07T10:43:47.206Z,28.00
2022-09-07T10:46:59.658Z,28.00
2022-09-07T10:52:39.169Z,28.10
2022-09-07T10:55:35.736Z,28.10
2022-09-07T10:59:01.394Z,28.20
2022-09-07T11:01:26.892Z,28.20
2022-09-07T11:03:53.736Z,28.30
2022-09-07T11:06:27.066Z,28.40
2022-09-07T11:09:30.539Z,28.50
2022-09-07T11:12:21.307Z,28.60
2022-09-07T11:14:56.146Z,28.80
2022-09-07T11:17:26.527Z,28.90
2022-09-07T11:20:08.874Z,29.00
2022-09-07T11:22:43.449Z,29.00
2022-09-07T11:25:31.593Z,29.00
2022-09-07T11:28:22.905Z,29.10
2022-09-07T11:31:04.249Z,29.30
2022-09-07T11:33:37.716Z,29.30
2022-09-07T11:36:16.500Z,29.40
2022-09-07T11:38:51.266Z,29.50
2022-09-07T11:41:22.875Z,29.50
2022-09-07T11:44:21.828Z,29.50
2022-09-07T11:46:53.253Z,29.50
2022-09-07T11:49:25.996Z,29.60
2022-09-07T11:52:05.279Z,29.70
2022-09-07T11:54:45.803Z,29.80
2022-09-07T11:57:15.317Z,29.90
2022-09-07T12:00:00.747Z,30.00
2022-09-07T12:03:00.285Z,30.10
2022-09-07T12:05:48.879Z,30.10
2022-09-07T12:08:31.107Z,30.10
2022-09-07T12:11:08.282Z,30.10
2022-09-07T12:13:50.731Z,30.10
2022-09-07T12:16:36.594Z,30.10
2022-09-07T12:19:19.073Z,30.00
2022-09-07T12:21:55.200Z,30.00
2022-09-07T12:24:42.133Z,30.10
2022-09-07T12:27:10.284Z,30.10
2022-09-07T12:29:45.159Z,30.20
2022-09-07T12:34:59.877Z,30.40
2022-09-07T12:37:26.750Z,30.30
2022-09-07T12:40:28.597Z,30.40
2022-09-07T12:43:13.488Z,30.40
2022-09-07T12:45:40.311Z,30.40
2022-09-07T12:48:15.943Z,30.40
2022-09-07T12:54:32.776Z,30.50
2022-09-07T12:57:29.693Z,30.40
2022-09-07T13:00:20.749Z,30.40
2022-09-07T13:02:57.813Z,30.30
2022-09-07T13:05:30.673Z,30.30
2022-09-07T13:08:08.847Z,30.30
2022-09-07T13:10:43.408Z,30.30
2022-09-07T13:13:16.828Z,30.40
2022-09-07T13:15:48.873Z,30.40
2022-09-07T13:18:28.494Z,30.50
2022-09-07T13:21:07.345Z,30.50
2022-09-07T13:23:38.136Z,30.60
2022-09-07T13:26:09.088Z,30.50
2022-09-07T13:28:58.096Z,30.50
2022-09-07T13:31:48.490Z,30.50
2022-09-07T13:34:54.591Z,30.40
2022-09-07T13:37:26.237Z,30.40
2022-09-07T13:39:58.281Z,30.30
2022-09-07T13:42:31.840Z,30.40
2022-09-07T13:45:05.122Z,30.50
2022-09-07T13:47:35.258Z,30.60
2022-09-07T13:50:36.300Z,30.60
2022-09-07T13:53:12.197Z,30.50
2022-09-07T13:56:01.102Z,30.60
2022-09-07T13:58:37.829Z,30.70
2022-09-07T14:01:21.829Z,30.70
2022-09-07T14:03:52.726Z,30.70
2022-09-07T14:06:22.429Z,30.70
2022-09-07T14:08:58.597Z,30.70
2022-09-07T14:11:49.179Z,30.70
2022-09-07T14:14:20.548Z,30.70
2022-09-07T14:17:00.938Z,30.80
2022-09-07T14:19:41.425Z,30.90
2022-09-07T14:22:18.566Z,30.90
2022-09-07T14:24:55.577Z,30.90
2022-09-07T14:27:41.134Z,31.00
2022-09-07T14:30:25.646Z,31.10
2022-09-07T14:33:03.879Z,31.20
2022-09-07T14:35:34.952Z,31.30
2022-09-07T14:41:15.846Z,31.40
2022-09-07T14:43:56.961Z,31.40
2022-09-07T14:46:25.917Z,31.40
2022-09-07T14:49:02.663Z,31.40
2022-09-07T14:51:36.102Z,31.50
2022-09-07T14:54:06.165Z,31.50
2022-09-07T14:56:41.620Z,31.50
2022-09-07T14:59:38.894Z,31.40
2022-09-07T15:02:26.990Z,31.40
2022-09-07T15:05:18.194Z,31.30
2022-09-07T15:07:54.446Z,31.30
2022-09-07T15:10:21.207Z,31.30
2022-09-07T15:13:22.392Z,31.30
2022-09-07T15:15:57.434Z,31.50
2022-09-07T15:18:47.256Z,31.60
2022-09-07T15:21:14.009Z,31.60
2022-09-07T15:23:40.779Z,31.70
2022-09-07T15:27:02.009Z,31.80
2022-09-07T15:29:13.435Z,31.80
2022-09-07T15:31:43.632Z,31.70
2022-09-07T15:34:13.722Z,31.70
2022-09-07T15:36:44.074Z,31.60
2022-09-07T15:39:22.596Z,31.50
2022-09-07T15:41:51.432Z,31.50
2022-09-07T15:44:22.849Z,31.50
2022-09-07T15:49:40.090Z,31.60
2022-09-07T15:52:09.097Z,31.60
2022-09-07T15:54:39.422Z,31.60
2022-09-07T15:59:53.753Z,31.60
2022-09-07T16:05:08.216Z,31.30
2022-09-07T16:10:21.863Z,31.20
2022-09-07T16:13:10.419Z,31.20
2022-09-07T16:15:36.001Z,31.10
2022-09-07T16:18:03.027Z,31.10
2022-09-07T16:20:32.759Z,31.10
2022-09-07T16:23:16.022Z,31.20
2022-09-07T16:25:54.248Z,31.10
2022-09-07T16:28:20.931Z,31.10
2022-09-07T16:30:48.159Z,31.00
2022-09-07T16:33:15.227Z,31.00
2022-09-07T16:35:42.223Z,30.90
2022-09-07T16:40:55.634Z,30.80
2022-09-07T16:43:22.345Z,30.70
2022-09-07T16:46:04.854Z,30.60
2022-09-07T16:48:34.095Z,30.60
2022-09-07T16:51:02.731Z,30.60
2022-09-07T16:53:31.646Z,30.60
2022-09-07T16:56:02.605Z,30.50
2022-09-07T16:58:38.338Z,30.50
2022-09-07T17:01:11.612Z,30.50
2022-09-07T17:03:39.337Z,30.50
2022-09-07T17:06:08.183Z,30.50
2022-09-07T17:08:36.466Z,30.50
2022-09-07T17:11:12.589Z,30.40
2022-09-07T17:13:40.691Z,30.40
2022-09-07T17:16:10.603Z,30.30
2022-09-07T17:21:24.719Z,30.20
2022-09-07T17:23:55.582Z,30.10
2022-09-07T17:26:26.695Z,30.10
2022-09-07T17:28:56.620Z,30.10
2022-09-07T17:34:19.767Z,30.10
2022-09-07T17:36:46.920Z,30.00
2022-09-07T17:39:15.017Z,30.00
2022-09-07T17:41:43.715Z,30.00
2022-09-07T17:44:10.550Z,30.00
2022-09-07T17:46:37.408Z,29.90
2022-09-07T17:49:05.213Z,29.90
2022-09-07T17:51:32.873Z,29.80
2022-09-07T17:54:09.708Z,29.70
2022-09-07T17:56:37.424Z,29.70
2022-09-07T18:01:51.180Z,29.50
2022-09-07T18:04:17.943Z,29.50
2022-09-07T18:06:44.711Z,29.40
2022-09-07T18:09:13.959Z,29.40
2022-09-07T18:11:47.085Z,29.40
2022-09-07T18:14:15.348Z,29.30
2022-09-07T18:16:44.389Z,29.30
2022-09-07T18:19:12.260Z,29.30
2022-09-07T18:21:41.841Z,29.20
2022-09-07T18:24:14.006Z,29.20
2022-09-07T18:26:41.173Z,29.20
2022-09-07T18:29:25.978Z,29.20
2022-09-07T18:31:54.957Z,29.20
2022-09-07T18:34:22.279Z,29.10
2022-09-07T18:36:49.068Z,29.10
2022-09-07T18:39:15.822Z,29.10
2022-09-07T18:41:42.663Z,29.10
2022-09-07T18:46:56.361Z,29.10
2022-09-07T18:49:23.557Z,29.00
2022-09-07T18:54:38.661Z,29.00
2022-09-07T18:57:06.689Z,28.90
2022-09-07T18:59:34.400Z,28.90
2022-09-07T19:02:04.339Z,28.80
2022-09-07T19:07:20.882Z,28.70
2022-09-07T19:09:48.510Z,28.60
2022-09-07T19:12:15.657Z,28.70
2022-09-07T19:14:42.465Z,28.60
2022-09-07T19:17:11.051Z,28.60
2022-09-07T19:19:39.637Z,28.60
2022-09-07T19:22:06.566Z,28.60
2022-09-07T19:24:33.464Z,28.60
2022-09-07T19:27:01.000Z,28.60
2022-09-07T19:29:28.592Z,28.60
2022-09-07T19:32:04.479Z,28.60
2022-09-07T19:34:33.134Z,28.60
2022-09-07T19:37:00.459Z,28.70
2022-09-07T19:39:27.824Z,28.70
2022-09-07T19:41:54.779Z,28.70
2022-09-07T19:44:21.472Z,28.70
2022-09-07T19:46:48.581Z,28.70
2022-09-07T19:49:15.423Z,28.70
2022-09-07T19:51:42.943Z,28.70
2022-09-07T19:54:11.097Z,28.70
2022-09-07T19:56:39.254Z,28.70
2022-09-07T19:59:06.195Z,28.70
2022-09-07T20:01:33.957Z,28.70
2022-09-07T20:04:10.787Z,28.70
2022-09-07T20:06:39.401Z,28.70
2022-09-07T20:09:07.999Z,28.70
2022-09-07T20:11:35.616Z,28.70
2022-09-07T20:14:02.532Z,28.60
2022-09-07T20:16:29.918Z,28.60
2022-09-07T20:18:57.281Z,28.50
2022-09-07T20:21:25.994Z,28.50
2022-09-07T20:23:52.728Z,28.40
2022-09-07T20:26:21.638Z,28.40
2022-09-07T20:29:05.912Z,28.30
2022-09-07T20:31:41.655Z,28.30
2022-09-07T20:34:09.582Z,28.30
2022-09-07T20:36:36.871Z,28.20
2022-09-07T20:39:06.985Z,28.20
2022-09-07T20:41:34.953Z,28.20
2022-09-07T20:44:03.303Z,28.10
2022-09-07T20:46:31.253Z,28.10
2022-09-07T20:48:58.619Z,28.00
2022-09-07T20:51:25.685Z,28.00
2022-09-07T20:53:52.702Z,28.00
2022-09-07T20:56:26.066Z,28.00
2022-09-07T20:58:57.857Z,27.90
2022-09-07T21:01:24.994Z,27.90
2022-09-07T21:03:54.058Z,27.90
2022-09-07T21:06:22.179Z,27.90
2022-09-07T21:08:49.940Z,27.80
2022-09-07T21:11:24.340Z,27.80
2022-09-07T21:14:07.147Z,27.80
2022-09-07T21:16:34.907Z,27.70
2022-09-07T21:19:02.901Z,27.70
2022-09-07T21:21:37.753Z,27.70
2022-09-07T21:24:06.007Z,27.70
2022-09-07T21:26:33.027Z,27.70
2022-09-07T21:29:01.953Z,27.70
2022-09-07T21:31:31.119Z,27.60
2022-09-07T21:34:00.534Z,27.60
2022-09-07T21:36:28.044Z,27.60
2022-09-07T21:38:55.825Z,27.60
2022-09-07T21:41:24.322Z,27.60
2022-09-07T21:44:00.573Z,27.50
2022-09-07T21:46:29.546Z,27.50
2022-09-07T21:48:58.058Z,27.50
2022-09-07T21:51:26.230Z,27.40
2022-09-07T21:53:58.279Z,27.40
2022-09-07T21:56:25.706Z,27.30
2022-09-07T21:58:56.858Z,27.30
2022-09-07T22:01:25.175Z,27.30
2022-09-07T22:04:03.892Z,27.30
2022-09-07T22:06:32.441Z,27.30
2022-09-07T22:08:59.854Z,27.30
2022-09-07T22:11:28.459Z,27.30
2022-09-07T22:14:01.497Z,27.30
2022-09-07T22:16:28.832Z,27.30
2022-09-07T22:18:55.727Z,27.30
2022-09-07T22:21:28.089Z,27.40
2022-09-07T22:23:57.498Z,27.40
2022-09-07T22:26:26.301Z,27.40
2022-09-07T22:28:53.081Z,27.40
2022-09-07T22:31:28.979Z,27.40
2022-09-07T22:33:57.305Z,27.40
2022-09-07T22:36:26.007Z,27.40
2022-09-07T22:38:54.923Z,27.40
2022-09-07T22:41:25.889Z,27.50
2022-09-07T22:43:52.640Z,27.40
2022-09-07T22:46:22.364Z,27.50
2022-09-07T22:48:49.731Z,27.50
2022-09-07T22:51:17.173Z,27.40
2022-09-07T22:53:44.333Z,27.40
2022-09-07T22:56:17.144Z,27.30
2022-09-07T22:58:52.545Z,27.30
2022-09-07T23:01:20.944Z,27.30
2022-09-07T23:03:48.341Z,27.30
2022-09-07T23:06:30.754Z,27.30
2022-09-07T23:08:58.971Z,27.20
2022-09-07T23:11:26.694Z,27.20
2022-09-07T23:13:58.881Z,27.10
2022-09-07T23:16:28.027Z,27.10
2022-09-07T23:18:55.933Z,27.00
2022-09-07T23:21:22.811Z,27.00
2022-09-07T23:23:54.776Z,26.90
2022-09-07T23:26:23.385Z,26.90
2022-09-07T23:28:54.809Z,26.90
2022-09-07T23:31:23.271Z,26.80
2022-09-07T23:33:50.467Z,26.70
2022-09-07T23:36:18.404Z,26.60
2022-09-07T23:38:46.289Z,26.50
2022-09-07T23:41:14.184Z,26.50
2022-09-07T23:43:41.674Z,26.40
2022-09-07T23:46:09.604Z,26.30
2022-09-07T23:48:36.608Z,26.30
2022-09-07T23:51:03.431Z,26.40
2022-09-07T23:53:30.266Z,26.40
2022-09-07T23:55:57.154Z,26.40
2022-09-07T23:58:24.083Z,26.40
